Time;durP1;ratioP1;P1;durP2;ratioP2;P2;SDS_P1;SDS_P2;PMS_P1;PMS_P2;Temp;Humidity;BMP_temperature;BMP_pressure;BME280_temperature;BME280_humidity;BME280_pressure;Samples;Min_cycle;Max_cycle;Signal;HPM_P1;HPM_P2
2023/09/13 00:00:03;;;;;;;2.63;2.60;;;24.60;75.60;;;;;;5108758;27;44014;-81
2023/09/13 00:02:40;;;;;;;2.58;2.47;;;24.70;75.20;;;;;;5106143;27;43458;-80
2023/09/13 00:05:09;;;;;;;2.42;2.42;;;24.80;74.80;;;;;;5110785;27;43495;-80
2023/09/13 00:07:38;;;;;;;2.20;2.20;;;24.90;74.50;;;;;;5100533;27;43412;-81
2023/09/13 00:10:07;;;;;;;2.40;2.40;;;24.90;74.50;;;;;;5095464;27;43608;-78
2023/09/13 00:12:35;;;;;;;2.58;2.58;;;24.80;74.60;;;;;;5110222;27;43452;-81
2023/09/13 00:15:04;;;;;;;2.60;2.60;;;24.80;74.90;;;;;;5098429;27;44038;-81
2023/09/13 00:17:33;;;;;;;2.20;2.20;;;24.80;75.00;;;;;;5097787;27;43322;-80
2023/09/13 00:20:03;;;;;;;2.30;2.30;;;24.70;75.10;;;;;;5078299;27;45695;-79
2023/09/13 00:22:31;;;;;;;2.15;2.15;;;24.70;75.20;;;;;;5079160;27;44928;-81
2023/09/13 00:25:00;;;;;;;2.20;2.20;;;24.60;75.40;;;;;;5109557;27;43840;-80
2023/09/13 00:27:28;;;;;;;2.40;2.40;;;24.60;75.50;;;;;;5109457;27;43517;-80
2023/09/13 00:29:57;;;;;;;2.80;2.70;;;24.60;75.60;;;;;;5105092;27;44541;-80
2023/09/13 00:32:25;;;;;;;2.53;2.53;;;24.60;75.60;;;;;;5086720;27;44746;-80
2023/09/13 00:34:53;;;;;;;2.67;2.58;;;24.50;75.60;;;;;;5108911;27;43339;-80
2023/09/13 00:37:21;;;;;;;2.35;2.35;;;24.50;75.80;;;;;;5090029;27;43491;-80
2023/09/13 00:39:49;;;;;;;2.05;2.05;;;24.60;75.80;;;;;;5091215;27;45848;-79
2023/09/13 00:42:18;;;;;;;2.85;2.80;;;24.70;75.40;;;;;;5084672;27;44733;-81
2023/09/13 00:44:47;;;;;;;2.53;2.53;;;24.80;75.00;;;;;;5108663;27;43486;-81
2023/09/13 00:47:16;;;;;;;2.60;2.60;;;24.80;74.60;;;;;;5086176;27;43427;-80
2023/09/13 00:49:44;;;;;;;2.72;2.63;;;24.80;74.50;;;;;;5090690;27;45383;-81
2023/09/13 00:52:13;;;;;;;2.40;2.40;;;24.80;74.70;;;;;;5085073;27;44496;-81
2023/09/13 00:54:41;;;;;;;2.47;2.38;;;24.70;75.00;;;;;;5089159;27;43457;-82
2023/09/13 00:57:09;;;;;;;2.40;2.40;;;24.70;75.00;;;;;;5079470;27;43568;-75
2023/09/13 00:59:38;;;;;;;2.58;2.58;;;24.70;75.10;;;;;;5091313;27;45692;-75
2023/09/13 01:02:07;;;;;;;2.60;2.50;;;24.60;75.10;;;;;;5109108;27;43502;-77
2023/09/13 01:04:35;;;;;;;2.50;2.50;;;24.60;75.50;;;;;;5098294;22;43491;-78
2023/09/13 01:07:03;;;;;;;2.38;2.38;;;24.60;75.60;;;;;;5055689;28;43512;-78
2023/09/13 01:09:31;;;;;;;2.35;2.35;;;24.60;75.40;;;;;;5054890;28;46014;-78
2023/09/13 01:11:59;;;;;;;2.67;2.63;;;24.70;75.20;;;;;;5052215;28;44622;-77
2023/09/13 01:14:27;;;;;;;2.75;2.70;;;24.70;75.20;;;;;;5052380;28;43455;-78
2023/09/13 01:17:00;;;;;;;2.58;2.47;;;24.60;75.30;;;;;;5068954;28;43423;-78
2023/09/13 01:19:50;;;;;;;2.22;2.22;;;24.60;75.50;;;;;;5054577;28;45776;-78
2023/09/13 01:22:41;;;;;;;2.50;2.50;;;24.60;75.40;;;;;;5052052;28;44874;-79
2023/09/13 01:25:29;;;;;;;2.70;2.50;;;24.60;75.40;;;;;;5053076;28;43512;-78
2023/09/13 01:28:00;;;;;;;2.55;2.55;;;24.50;75.50;;;;;;5056704;28;43408;-79
2023/09/13 01:30:29;;;;;;;2.67;2.58;;;24.50;75.70;;;;;;5055398;28;45688;-77
2023/09/13 01:32:58;;;;;;;2.40;2.40;;;24.50;75.70;;;;;;5054159;28;44674;-78
2023/09/13 01:35:26;;;;;;;2.25;2.25;;;24.50;75.70;;;;;;5050297;28;43409;-79
2023/09/13 01:37:54;;;;;;;2.53;2.50;;;24.50;75.70;;;;;;5055235;28;43631;-78
2023/09/13 01:40:22;;;;;;;2.78;2.67;;;24.40;75.90;;;;;;5075472;28;43615;-78
2023/09/13 01:42:50;;;;;;;2.47;2.40;;;24.50;75.80;;;;;;5059133;28;44413;-78
2023/09/13 01:45:18;;;;;;;2.30;2.30;;;24.60;75.50;;;;;;5052767;28;43898;-76
2023/09/13 01:47:48;;;;;;;2.58;2.58;;;24.70;75.10;;;;;;5057908;28;44049;-78
2023/09/13 01:50:16;;;;;;;2.05;2.05;;;24.80;74.80;;;;;;5053650;28;45587;-79
2023/09/13 01:52:44;;;;;;;2.28;2.25;;;24.80;74.70;;;;;;5072300;28;43442;-77
2023/09/13 01:55:13;;;;;;;2.60;2.50;;;24.70;74.80;;;;;;5065511;28;43407;-78
2023/09/13 01:57:41;;;;;;;2.42;2.33;;;24.70;75.10;;;;;;5052475;28;43851;-78
2023/09/13 02:00:11;;;;;;;2.38;2.38;;;24.70;75.20;;;;;;5052087;28;45401;-78
2023/09/13 02:02:39;;;;;;;2.25;2.25;;;24.60;75.20;;;;;;5070664;28;43369;-78
2023/09/13 02:05:08;;;;;;;2.30;2.30;;;24.60;75.30;;;;;;5049275;28;43421;-79
2023/09/13 02:07:37;;;;;;;2.17;2.17;;;24.50;75.60;;;;;;5050080;28;43499;-77
2023/09/13 02:10:06;;;;;;;2.20;2.20;;;24.50;75.70;;;;;;5048893;28;45297;-78
2023/09/13 02:12:34;;;;;;;2.35;2.25;;;24.50;75.70;;;;;;5048528;28;44801;-77
2023/09/13 02:15:04;;;;;;;2.25;2.25;;;24.50;75.60;;;;;;5049304;28;43392;-76
2023/09/13 02:17:32;;;;;;;2.38;2.28;;;24.40;76.00;;;;;;5049688;28;43501;-70
2023/09/13 02:20:00;;;;;;;2.05;2.05;;;24.50;76.00;;;;;;5048455;28;45358;-71
2023/09/13 02:22:30;;;;;;;2.17;2.17;;;24.50;75.60;;;;;;5049031;28;44863;-71
2023/09/13 02:25:00;;;;;;;2.28;2.28;;;24.70;75.30;;;;;;5049202;28;43451;-71
2023/09/13 02:27:28;;;;;;;2.53;2.47;;;24.80;74.90;;;;;;5050505;28;44026;-71
2023/09/13 02:29:56;;;;;;;2.15;2.15;;;24.80;74.60;;;;;;5068359;28;43607;-71
2023/09/13 02:32:24;;;;;;;2.25;2.22;;;24.80;74.60;;;;;;5068212;28;43439;-71
2023/09/13 02:34:52;;;;;;;2.22;2.22;;;24.70;74.70;;;;;;5048806;28;43407;-70
2023/09/13 02:37:20;;;;;;;2.40;2.40;;;24.70;75.10;;;;;;5049637;28;43519;-70
2023/09/13 02:39:50;;;;;;;2.30;2.30;;;24.60;75.10;;;;;;5068015;28;43842;-71
2023/09/13 02:42:18;;;;;;;2.22;2.22;;;24.60;75.90;;;;;;5052529;28;45024;-70
2023/09/13 02:44:46;;;;;;;2.40;2.40;;;24.50;75.20;;;;;;5048962;28;43417;-70
2023/09/13 02:47:14;;;;;;;2.22;2.22;;;24.50;75.60;;;;;;5049552;28;43910;-70
2023/09/13 02:49:42;;;;;;;2.25;2.25;;;24.50;75.60;;;;;;5051303;28;45508;-71
2023/09/13 02:52:10;;;;;;;2.30;2.30;;;24.50;75.60;;;;;;5048329;28;44410;-71
2023/09/13 02:54:38;;;;;;;2.20;2.20;;;24.50;75.60;;;;;;5067855;28;43435;-70
2023/09/13 02:57:08;;;;;;;2.40;2.40;;;24.40;75.80;;;;;;5049170;28;44138;-70
2023/09/13 02:59:36;;;;;;;2.35;2.35;;;24.40;76.00;;;;;;5048967;28;45555;-71
2023/09/13 03:02:05;;;;;;;2.10;2.10;;;24.50;75.80;;;;;;5067382;28;43951;-71
2023/09/13 03:04:33;;;;;;;2.10;2.10;;;24.60;75.40;;;;;;5048766;28;43970;-70
2023/09/13 03:07:01;;;;;;;2.20;2.20;;;24.70;75.00;;;;;;5048753;28;43503;-70
2023/09/13 03:09:29;;;;;;;2.17;2.17;;;24.70;74.80;;;;;;5049115;28;45718;-70
2023/09/13 03:11:58;;;;;;;2.55;2.45;;;24.70;74.80;;;;;;5048852;28;45068;-68
2023/09/13 03:14:27;;;;;;;2.22;2.22;;;24.60;75.00;;;;;;5049031;28;44214;-71
2023/09/13 03:16:55;;;;;;;2.97;2.35;;;24.60;75.30;;;;;;5048938;28;43519;-71
2023/09/13 03:19:23;;;;;;;2.30;2.30;;;24.50;75.20;;;;;;5063268;28;45973;-70
2023/09/13 03:21:52;;;;;;;2.10;2.10;;;24.50;75.30;;;;;;5047340;28;44759;-70
2023/09/13 03:24:20;;;;;;;2.40;2.40;;;24.50;75.50;;;;;;5050472;28;43450;-70
2023/09/13 03:26:48;;;;;;;1.98;1.98;;;24.40;75.70;;;;;;5065964;28;43957;-72
2023/09/13 03:29:17;;;;;;;2.13;2.13;;;24.40;75.70;;;;;;5052108;28;46118;-78
2023/09/13 03:31:46;;;;;;;2.20;2.20;;;24.40;76.30;;;;;;5051494;28;44714;-78
2023/09/13 03:34:15;;;;;;;2.00;2.00;;;24.40;75.60;;;;;;5055812;28;43446;-78
2023/09/13 03:36:43;;;;;;;2.30;2.20;;;24.40;76.10;;;;;;5070583;28;43509;-78
2023/09/13 03:39:12;;;;;;;2.53;2.47;;;24.40;76.00;;;;;;5051474;28;44727;-78
2023/09/13 03:41:40;;;;;;;2.20;2.20;;;24.40;75.90;;;;;;5074265;28;43366;-78
2023/09/13 03:44:09;;;;;;;2.10;2.10;;;24.40;75.70;;;;;;5051430;28;43887;-78
2023/09/13 03:46:38;;;;;;;2.25;2.25;;;24.40;76.10;;;;;;5074958;28;43399;-78
2023/09/13 03:49:08;;;;;;;3.22;3.03;;;24.40;76.20;;;;;;5051916;28;45816;-77
2023/09/13 03:51:36;;;;;;;5.03;3.08;;;24.40;75.90;;;;;;5051487;28;45028;-78
2023/09/13 03:54:04;;;;;;;7.50;4.43;;;24.50;75.60;;;;;;5051022;28;43862;-79
2023/09/13 03:56:34;;;;;;;9.40;4.72;;;24.70;75.20;;;;;;5052106;28;43484;-78
2023/09/13 03:59:02;;;;;;;8.00;4.63;;;24.70;74.80;;;;;;5051017;28;44949;-78
2023/09/13 04:01:30;;;;;;;11.70;4.97;;;24.70;74.60;;;;;;5051643;28;44804;-78
2023/09/13 04:03:58;;;;;;;10.65;5.55;;;24.70;74.80;;;;;;5051180;28;43401;-78
2023/09/13 04:06:28;;;;;;;13.88;6.15;;;24.60;75.10;;;;;;5051627;28;43547;-78
2023/09/13 04:08:56;;;;;;;13.77;5.97;;;24.60;75.80;;;;;;5051193;28;45888;-78
2023/09/13 04:11:26;;;;;;;13.10;6.70;;;24.60;75.20;;;;;;5051102;28;44066;-78
2023/09/13 04:13:54;;;;;;;13.32;5.80;;;24.50;75.00;;;;;;5050802;28;43671;-76
2023/09/13 04:16:22;;;;;;;13.10;6.32;;;24.50;75.30;;;;;;5051042;28;43569;-77
2023/09/13 04:18:50;;;;;;;14.45;6.13;;;24.50;75.70;;;;;;5050067;28;45335;-76
2023/09/13 04:21:18;;;;;;;12.32;6.90;;;24.50;75.60;;;;;;5051013;28;45180;-77
2023/09/13 04:23:48;;;;;;;14.73;6.47;;;24.50;75.30;;;;;;5050397;28;43418;-78
2023/09/13 04:26:21;;;;;;;13.82;6.32;;;24.50;75.20;;;;;;5051520;28;44137;-77
2023/09/13 04:28:49;;;;;;;12.07;7.10;;;24.50;75.00;;;;;;5050954;28;45780;-77
2023/09/13 04:31:17;;;;;;;13.38;6.57;;;24.50;74.70;;;;;;5050511;28;44462;-77
2023/09/13 04:33:50;;;;;;;10.55;6.15;;;24.50;74.90;;;;;;5050976;28;43483;-76
2023/09/13 04:36:20;;;;;;;11.95;5.90;;;24.50;75.10;;;;;;5050638;28;43511;-77
2023/09/13 04:38:50;;;;;;;11.95;6.47;;;24.50;75.00;;;;;;5051098;28;46039;-77
2023/09/13 04:41:18;;;;;;;13.73;6.20;;;24.40;75.40;;;;;;5049832;28;44670;-77
2023/09/13 04:43:46;;;;;;;12.50;6.53;;;24.40;75.60;;;;;;5050715;28;43831;-78
2023/09/13 04:46:18;;;;;;;13.23;6.72;;;24.40;75.40;;;;;;5050912;28;43425;-77
2023/09/13 04:48:46;;;;;;;9.63;6.35;;;24.50;75.20;;;;;;5049776;28;45778;-77
2023/09/13 04:51:14;;;;;;;9.15;6.13;;;24.50;75.00;;;;;;5049968;28;44450;-76
2023/09/13 04:53:43;;;;;;;9.75;6.00;;;24.50;74.90;;;;;;5048949;28;43439;-76
2023/09/13 04:56:12;;;;;;;11.23;6.18;;;24.50;75.30;;;;;;5053864;28;43502;-77
2023/09/13 04:58:44;;;;;;;8.10;5.50;;;24.50;75.30;;;;;;5051630;28;44062;-76
2023/09/13 05:01:13;;;;;;;7.47;5.85;;;24.50;75.30;;;;;;5068846;28;43525;-76
2023/09/13 05:03:41;;;;;;;9.82;6.55;;;24.50;75.20;;;;;;5049237;28;43436;-76
2023/09/13 05:06:09;;;;;;;9.40;6.05;;;24.40;75.50;;;;;;5074077;28;43559;-77
2023/09/13 05:08:37;;;;;;;9.70;6.00;;;24.40;75.70;;;;;;5069451;28;44336;-77
2023/09/13 05:11:06;;;;;;;9.70;6.18;;;24.50;75.50;;;;;;5068721;28;44042;-76
2023/09/13 05:13:38;;;;;;;9.43;5.97;;;24.50;75.90;;;;;;5069421;28;43428;-77
2023/09/13 05:16:06;;;;;;;8.43;6.15;;;24.60;74.80;;;;;;5049995;28;43505;-77
2023/09/13 05:18:34;;;;;;;6.95;5.35;;;24.70;74.70;;;;;;5068674;28;43856;-76
2023/09/13 05:21:02;;;;;;;9.23;6.40;;;24.60;74.70;;;;;;5049876;28;44755;-76
2023/09/13 05:23:30;;;;;;;7.68;5.38;;;24.60;74.70;;;;;;5051289;28;43488;-77
2023/09/13 05:25:58;;;;;;;7.93;6.13;;;24.50;75.10;;;;;;5067166;28;43458;-76
2023/09/13 05:28:31;;;;;;;6.88;5.82;;;24.50;75.80;;;;;;5068971;28;43895;-77
2023/09/13 05:31:01;;;;;;;6.82;5.63;;;24.50;75.10;;;;;;5062536;28;43470;-76
2023/09/13 05:33:29;;;;;;;7.10;5.93;;;24.40;74.90;;;;;;5068373;28;43438;-76
2023/09/13 05:35:57;;;;;;;7.78;6.13;;;24.40;75.40;;;;;;5056772;28;43425;-76
2023/09/13 05:38:25;;;;;;;6.60;5.78;;;24.40;75.40;;;;;;5068380;28;43612;-76
2023/09/13 05:40:53;;;;;;;5.63;5.13;;;24.40;75.40;;;;;;5073198;28;43412;-76
2023/09/13 05:43:21;;;;;;;6.55;5.95;;;24.30;75.10;;;;;;5055235;28;43436;-77
2023/09/13 05:45:50;;;;;;;6.72;6.10;;;24.30;76.20;;;;;;5048894;28;44029;-77
2023/09/13 05:48:19;;;;;;;6.70;6.10;;;24.30;75.40;;;;;;5067287;28;43845;-77
2023/09/13 05:50:47;;;;;;;6.75;6.05;;;24.40;74.80;;;;;;5067496;28;43669;-76
2023/09/13 05:53:18;;;;;;;6.20;5.70;;;24.50;74.30;;;;;;5068300;28;43332;-76
2023/09/13 05:55:46;;;;;;;6.47;6.03;;;24.60;74.00;;;;;;5049783;28;43391;-76
2023/09/13 05:58:14;;;;;;;6.40;5.88;;;24.60;73.80;;;;;;5067212;28;43977;-76
2023/09/13 06:00:42;;;;;;;6.35;5.85;;;24.60;73.90;;;;;;5066757;28;43374;-77
2023/09/13 06:03:11;;;;;;;5.93;5.43;;;24.50;74.10;;;;;;5067615;28;43420;-77
2023/09/13 06:05:42;;;;;;;6.55;5.85;;;24.50;74.40;;;;;;5068147;28;43987;-76
2023/09/13 06:08:10;;;;;;;5.72;5.43;;;24.50;74.30;;;;;;5049373;28;45710;-77
2023/09/13 06:10:38;;;;;;;6.57;6.05;;;24.40;74.30;;;;;;5069061;28;43927;-76
2023/09/13 06:13:06;;;;;;;6.20;5.70;;;24.40;74.40;;;;;;5072660;28;43456;-77
2023/09/13 06:15:34;;;;;;;5.95;5.53;;;24.30;74.50;;;;;;5072110;28;43397;-76
2023/09/13 06:18:02;;;;;;;6.43;6.00;;;24.30;74.40;;;;;;5049384;28;45681;-76
2023/09/13 06:20:31;;;;;;;5.30;5.00;;;24.30;74.50;;;;;;5067848;28;43864;-77
2023/09/13 06:23:01;;;;;;;6.63;6.03;;;24.30;74.50;;;;;;5047865;28;43504;-76
2023/09/13 06:25:29;;;;;;;5.78;5.47;;;24.30;74.90;;;;;;5068232;28;43481;-77
2023/09/13 06:28:00;;;;;;;5.88;5.57;;;24.30;74.80;;;;;;5063931;28;43952;-77
2023/09/13 06:30:28;;;;;;;5.63;5.22;;;24.30;74.40;;;;;;5067643;28;43419;-76
2023/09/13 06:32:56;;;;;;;5.10;4.80;;;24.40;74.00;;;;;;5067569;28;43491;-77
2023/09/13 06:35:38;;;;;;;5.47;5.13;;;24.50;73.60;;;;;;5068328;28;43416;-76
2023/09/13 06:38:08;;;;;;;5.40;5.20;;;24.60;73.40;;;;;;5067613;28;43867;-77
2023/09/13 06:40:37;;;;;;;5.60;5.20;;;24.50;73.20;;;;;;5052405;28;45264;-77
2023/09/13 06:43:06;;;;;;;5.55;5.15;;;24.50;73.50;;;;;;5073386;28;43452;-76
2023/09/13 06:45:53;;;;;;;5.32;5.00;;;24.40;73.50;;;;;;5044423;28;43558;-76
2023/09/13 06:48:32;;;;;;;5.97;4.80;;;24.40;73.60;;;;;;5048716;28;45563;-77
2023/09/13 06:51:01;;;;;;;5.55;5.18;;;24.40;73.90;;;;;;5067256;28;43467;-77
2023/09/13 06:53:51;;;;;;;5.25;4.90;;;24.30;73.90;;;;;;5048841;28;43393;-77
2023/09/13 06:56:22;;;;;;;4.88;4.68;;;24.30;74.30;;;;;;5062354;28;43443;-76
2023/09/13 06:58:54;;;;;;;5.20;4.90;;;24.30;74.10;;;;;;5064610;28;43796;-75
2023/09/13 07:01:25;;;;;;;5.28;5.00;;;24.40;74.70;;;;;;5050713;28;44403;-76
2023/09/13 07:04:03;;;;;;;5.00;4.80;;;24.40;73.90;;;;;;5069004;28;43443;-76
2023/09/13 07:06:36;;;;;;;4.70;4.50;;;24.30;73.90;;;;;;5070770;28;43353;-76
2023/09/13 07:09:06;;;;;;;5.13;4.90;;;24.30;74.00;;;;;;5069710;28;43625;-76
2023/09/13 07:11:34;;;;;;;5.18;4.97;;;24.30;73.80;;;;;;5058539;28;45223;-76
2023/09/13 07:14:02;;;;;;;5.05;4.75;;;24.30;74.00;;;;;;5077405;28;43524;-76
2023/09/13 07:16:31;;;;;;;5.25;5.00;;;24.30;74.10;;;;;;5073941;28;43508;-76
2023/09/13 07:18:59;;;;;;;5.80;5.40;;;24.20;74.10;;;;;;5052292;28;45715;-77
2023/09/13 07:21:31;;;;;;;5.93;5.53;;;24.20;73.90;;;;;;5067884;28;44100;-76
2023/09/13 07:23:59;;;;;;;4.50;4.35;;;24.20;74.00;;;;;;5073523;28;43390;-76
2023/09/13 07:26:28;;;;;;;4.85;4.65;;;24.20;74.10;;;;;;5065066;28;43400;-76
2023/09/13 07:28:56;;;;;;;5.80;5.40;;;24.10;74.10;;;;;;5052381;28;45690;-76
2023/09/13 07:31:25;;;;;;;4.82;4.55;;;24.10;73.90;;;;;;5070375;28;43328;-77
2023/09/13 07:33:53;;;;;;;5.72;5.35;;;24.20;73.90;;;;;;5070692;28;43449;-76
2023/09/13 07:36:23;;;;;;;4.93;4.72;;;24.30;73.60;;;;;;5069617;28;44012;-75
2023/09/13 07:38:52;;;;;;;5.60;5.10;;;24.40;73.10;;;;;;5048843;28;46073;-75
2023/09/13 07:41:20;;;;;;;5.00;4.60;;;24.40;72.70;;;;;;5070821;27;44001;-76
2023/09/13 07:43:50;;;;;;;5.00;4.80;;;24.40;72.70;;;;;;5068489;28;43612;-75
2023/09/13 07:46:18;;;;;;;5.53;5.15;;;24.40;73.00;;;;;;5070546;28;43376;-76
2023/09/13 07:48:46;;;;;;;6.13;5.72;;;24.30;73.00;;;;;;5050959;28;45673;-77
2023/09/13 07:51:14;;;;;;;5.25;4.95;;;24.30;72.90;;;;;;5054139;28;44706;-76
2023/09/13 07:53:42;;;;;;;5.18;4.82;;;24.30;73.20;;;;;;5071993;28;43447;-76
2023/09/13 07:56:10;;;;;;;5.03;4.82;;;24.30;73.50;;;;;;5051806;28;43535;-75
2023/09/13 07:58:38;;;;;;;5.15;4.88;;;24.20;73.40;;;;;;5051617;28;45744;-75
2023/09/13 08:01:08;;;;;;;4.75;4.55;;;24.20;73.30;;;;;;5050412;28;45143;-77
2023/09/13 08:03:36;;;;;;;4.95;4.70;;;24.20;73.30;;;;;;5069491;28;43448;-75
2023/09/13 08:06:04;;;;;;;5.45;5.18;;;24.10;73.50;;;;;;5051579;28;43635;-76
2023/09/13 08:08:33;;;;;;;5.13;4.82;;;24.10;73.50;;;;;;5069966;28;43845;-76
2023/09/13 08:11:02;;;;;;;5.20;5.00;;;24.10;73.30;;;;;;5068497;28;43509;-76
2023/09/13 08:13:30;;;;;;;4.88;4.68;;;24.20;73.20;;;;;;5069968;28;43550;-75
2023/09/13 08:15:58;;;;;;;5.47;5.18;;;24.30;72.80;;;;;;5069960;28;43374;-76
2023/09/13 08:18:27;;;;;;;5.63;5.35;;;24.40;72.40;;;;;;5051301;28;44684;-75
2023/09/13 08:20:55;;;;;;;5.85;5.25;;;24.40;72.90;;;;;;5069692;28;43925;-76
2023/09/13 08:23:24;;;;;;;5.72;5.53;;;24.40;72.20;;;;;;5069493;28;43945;-76
2023/09/13 08:25:52;;;;;;;5.72;5.40;;;24.30;72.60;;;;;;5051188;28;43585;-76
2023/09/13 08:28:20;;;;;;;5.90;5.43;;;24.30;72.60;;;;;;5049731;28;46253;-76
2023/09/13 08:30:49;;;;;;;6.03;5.63;;;24.30;72.60;;;;;;5054558;28;44342;-77
2023/09/13 08:33:17;;;;;;;5.18;4.97;;;24.20;72.80;;;;;;5075956;28;43529;-76
2023/09/13 08:35:47;;;;;;;5.20;4.90;;;24.20;73.10;;;;;;5051249;28;43615;-75
2023/09/13 08:38:15;;;;;;;5.57;5.35;;;24.10;73.20;;;;;;5069347;28;43600;-76
2023/09/13 08:40:44;;;;;;;6.03;5.60;;;24.10;73.20;;;;;;5073304;28;43715;-76
2023/09/13 08:43:12;;;;;;;6.28;5.10;;;24.10;73.20;;;;;;5069717;28;43351;-77
2023/09/13 08:45:40;;;;;;;6.32;5.93;;;24.10;73.30;;;;;;5069886;28;43411;-75
2023/09/13 08:48:09;;;;;;;5.85;5.53;;;24.10;73.50;;;;;;5068898;28;43612;-77
2023/09/13 08:50:37;;;;;;;5.60;5.20;;;24.00;73.30;;;;;;5048908;28;44773;-76
2023/09/13 08:53:07;;;;;;;5.97;5.60;;;24.10;73.10;;;;;;5063864;28;43865;-76
2023/09/13 08:55:35;;;;;;;5.30;5.10;;;24.20;73.60;;;;;;5066051;28;43444;-74
2023/09/13 08:58:03;;;;;;;6.00;5.60;;;24.30;72.60;;;;;;5062147;28;43908;-75
2023/09/13 09:00:32;;;;;;;5.80;5.50;;;24.30;72.40;;;;;;5069024;28;43458;-75
2023/09/13 09:03:02;;;;;;;5.45;5.20;;;24.30;72.40;;;;;;5068878;28;43470;-75
2023/09/13 09:05:31;;;;;;;5.60;5.30;;;24.30;72.60;;;;;;5051025;28;44060;-75
2023/09/13 09:07:59;;;;;;;5.50;5.30;;;24.20;72.80;;;;;;5050064;28;45440;-77
2023/09/13 09:10:29;;;;;;;5.68;5.25;;;24.20;72.80;;;;;;5068768;28;43428;-76
2023/09/13 09:12:58;;;;;;;5.38;5.15;;;24.10;72.80;;;;;;5068835;28;43390;-77
2023/09/13 09:15:26;;;;;;;5.70;5.40;;;24.10;73.10;;;;;;5069427;28;43883;-76
2023/09/13 09:17:55;;;;;;;5.38;5.05;;;24.10;73.40;;;;;;5068687;28;43599;-76
2023/09/13 09:20:28;;;;;;;6.20;5.80;;;24.10;73.40;;;;;;5069326;28;43356;-76
2023/09/13 09:22:57;;;;;;;5.47;5.22;;;24.10;73.20;;;;;;5068261;28;43962;-77
2023/09/13 09:25:29;;;;;;;5.53;5.23;;;24.20;72.70;;;;;;5069149;28;43552;-76
2023/09/13 09:27:57;;;;;;;6.07;5.78;;;24.30;72.30;;;;;;5067617;28;44349;-76
2023/09/13 09:30:32;;;;;;;5.78;5.45;;;24.30;72.00;;;;;;5046249;28;44538;-77
2023/09/13 09:33:01;;;;;;;5.40;5.10;;;24.30;72.20;;;;;;5074795;28;43437;-77
2023/09/13 09:35:29;;;;;;;5.57;5.38;;;24.20;72.50;;;;;;5068915;28;43985;-76
2023/09/13 09:37:57;;;;;;;5.90;5.70;;;24.20;72.60;;;;;;5049342;28;45389;-76
2023/09/13 09:40:26;;;;;;;5.67;5.37;;;24.10;72.50;;;;;;5066386;28;43956;-79
2023/09/13 09:42:58;;;;;;;5.10;4.90;;;24.10;72.80;;;;;;5070003;28;43512;-78
2023/09/13 09:45:26;;;;;;;5.55;5.25;;;24.10;73.10;;;;;;5050186;28;43435;-78
2023/09/13 09:47:54;;;;;;;5.60;5.30;;;24.10;73.20;;;;;;5049629;28;46063;-78
2023/09/13 09:50:22;;;;;;;5.40;5.20;;;24.00;72.80;;;;;;5068453;28;43873;-79
2023/09/13 09:52:51;;;;;;;5.10;5.00;;;24.00;72.90;;;;;;5066338;28;43409;-78
2023/09/13 09:55:21;;;;;;;5.35;5.15;;;24.00;73.20;;;;;;5068439;28;43830;-77
2023/09/13 09:57:50;;;;;;;5.35;5.05;;;24.00;73.40;;;;;;5068098;28;43837;-77
2023/09/13 10:00:21;;;;;;;5.63;5.22;;;24.00;73.40;;;;;;5067902;28;44338;-78
2023/09/13 10:02:49;;;;;;;5.60;5.30;;;24.00;72.50;;;;;;5049664;28;43503;-78
2023/09/13 10:05:18;;;;;;;4.88;4.78;;;24.10;72.20;;;;;;5047818;28;43427;-77
2023/09/13 10:07:50;;;;;;;5.22;5.03;;;24.20;71.80;;;;;;5068647;28;43897;-77
2023/09/13 10:10:29;;;;;;;5.10;4.80;;;24.30;71.50;;;;;;5068052;28;43293;-78
2023/09/13 10:13:00;;;;;;;4.72;4.53;;;24.30;71.90;;;;;;5063176;28;43847;-77
2023/09/13 10:15:30;;;;;;;4.82;4.63;;;24.30;72.10;;;;;;5068510;28;44030;-76
2023/09/13 10:17:58;;;;;;;5.10;4.90;;;24.20;71.80;;;;;;5067865;28;45277;-76
2023/09/13 10:20:26;;;;;;;4.95;4.75;;;24.20;71.70;;;;;;5049631;28;44797;-77
2023/09/13 10:22:55;;;;;;;4.70;4.40;;;24.20;72.20;;;;;;5065603;28;43424;-77
2023/09/13 10:25:24;;;;;;;4.88;4.65;;;24.10;72.50;;;;;;5068465;28;43574;-76
2023/09/13 10:27:54;;;;;;;5.18;4.88;;;24.10;72.70;;;;;;5067902;28;43622;-71
2023/09/13 10:30:24;;;;;;;4.30;4.20;;;24.10;72.30;;;;;;5067712;28;43480;-71
2023/09/13 10:32:57;;;;;;;4.38;4.28;;;24.10;72.40;;;;;;5067139;28;43402;-73
2023/09/13 10:35:26;;;;;;;4.75;4.55;;;24.00;72.70;;;;;;5049391;28;43496;-72
2023/09/13 10:37:58;;;;;;;4.38;4.10;;;24.00;72.80;;;;;;5048649;28;45673;-71
2023/09/13 10:40:29;;;;;;;4.70;4.43;;;24.00;72.30;;;;;;5048898;28;44405;-72
2023/09/13 10:42:57;;;;;;;4.20;3.90;;;24.00;72.30;;;;;;5067971;28;43417;-72
2023/09/13 10:45:25;;;;;;;4.07;3.87;;;24.00;72.60;;;;;;5068086;28;43359;-72
2023/09/13 10:47:55;;;;;;;4.40;4.30;;;24.00;72.90;;;;;;5067093;28;43830;-72
2023/09/13 10:50:23;;;;;;;4.15;4.05;;;24.00;72.30;;;;;;5049316;28;44750;-72
2023/09/13 10:52:51;;;;;;;4.45;4.25;;;24.00;71.80;;;;;;5050454;28;43468;-73
2023/09/13 10:55:19;;;;;;;4.60;4.30;;;24.10;71.60;;;;;;5049622;28;43514;-72
2023/09/13 10:57:47;;;;;;;4.00;3.80;;;24.20;71.20;;;;;;5067254;28;43695;-71
2023/09/13 11:00:16;;;;;;;4.35;4.10;;;24.30;70.80;;;;;;5067296;28;43999;-70
2023/09/13 11:02:45;;;;;;;3.85;3.75;;;24.40;70.60;;;;;;5067383;28;43399;-69
2023/09/13 11:05:17;;;;;;;3.83;3.70;;;24.40;70.70;;;;;;5067527;28;43491;-70
2023/09/13 11:07:46;;;;;;;4.05;3.88;;;24.40;71.20;;;;;;5068217;28;43862;-71
2023/09/13 11:10:15;;;;;;;3.97;3.60;;;24.30;70.80;;;;;;5067084;28;43514;-72
2023/09/13 11:12:48;;;;;;;4.22;3.92;;;24.30;70.80;;;;;;5067820;28;44184;-72
2023/09/13 11:15:20;;;;;;;3.55;3.25;;;24.30;71.30;;;;;;5059932;28;43916;-72
2023/09/13 11:17:48;;;;;;;3.90;3.70;;;24.20;71.60;;;;;;5071671;28;43880;-74
2023/09/13 11:20:30;;;;;;;4.35;4.05;;;24.20;72.00;;;;;;5072033;28;43419;-74
2023/09/13 11:23:03;;;;;;;4.05;3.95;;;24.10;71.20;;;;;;5066316;28;43404;-73
2023/09/13 11:25:35;;;;;;;3.70;3.60;;;24.10;71.50;;;;;;5049049;28;43552;-73
2023/09/13 11:28:43;;;;;;;4.18;3.95;;;24.10;72.00;;;;;;5066880;28;44442;-72
2023/09/13 11:31:13;;;;;;;4.10;4.00;;;24.10;71.30;;;;;;5066545;28;43726;-74
2023/09/13 11:33:46;;;;;;;3.80;3.60;;;24.10;71.00;;;;;;5048812;28;43443;-73
2023/09/13 11:36:18;;;;;;;3.65;3.55;;;24.20;70.60;;;;;;5067277;28;44188;-72
2023/09/13 11:38:46;;;;;;;4.20;3.80;;;24.30;70.50;;;;;;5067494;28;43951;-72
2023/09/13 11:41:16;;;;;;;3.80;3.60;;;24.30;70.10;;;;;;5068559;28;43423;-72
2023/09/13 11:43:44;;;;;;;3.40;3.30;;;24.30;70.50;;;;;;5048304;28;43433;-71
2023/09/13 11:46:28;;;;;;;3.45;3.30;;;24.30;70.90;;;;;;5069252;28;43463;-72
2023/09/13 11:48:58;;;;;;;3.72;3.63;;;24.20;70.90;;;;;;5070128;28;43596;-72
2023/09/13 11:51:33;;;;;;;3.10;3.00;;;24.20;71.00;;;;;;5068269;28;43440;-72
2023/09/13 11:54:13;;;;;;;3.58;3.47;;;24.10;71.20;;;;;;5070335;28;43378;-72
2023/09/13 11:56:43;;;;;;;3.50;3.40;;;24.10;71.40;;;;;;5052216;28;43609;-72
2023/09/13 11:59:15;;;;;;;3.20;3.10;;;24.10;71.60;;;;;;5069587;28;43815;-72
2023/09/13 12:01:46;;;;;;;3.63;3.33;;;24.00;71.60;;;;;;5051319;28;44718;-72
2023/09/13 12:04:20;;;;;;;3.50;3.30;;;24.00;71.60;;;;;;5069873;28;43481;-72
2023/09/13 12:06:54;;;;;;;3.15;3.05;;;24.00;71.80;;;;;;5070365;28;43440;-72
2023/09/13 12:09:27;;;;;;;3.38;3.17;;;24.00;72.10;;;;;;5051094;28;46019;-72
2023/09/13 12:11:58;;;;;;;3.40;3.20;;;23.90;71.80;;;;;;5070068;28;43458;-72
2023/09/13 12:14:32;;;;;;;3.25;3.10;;;24.00;72.00;;;;;;5064337;28;43371;-72
2023/09/13 12:17:20;;;;;;;3.25;3.15;;;24.00;72.00;;;;;;5070410;28;43998;-72
2023/09/13 12:19:50;;;;;;;3.00;2.90;;;23.90;72.20;;;;;;5050383;28;45554;-73
2023/09/13 12:22:22;;;;;;;3.20;3.10;;;23.90;71.90;;;;;;5069265;28;43541;-72
2023/09/13 12:24:52;;;;;;;2.95;2.85;;;24.00;71.60;;;;;;5070020;28;43443;-73
2023/09/13 12:27:20;;;;;;;3.38;3.22;;;24.10;71.30;;;;;;5069900;28;43383;-73
2023/09/13 12:29:48;;;;;;;3.10;3.00;;;24.20;70.90;;;;;;5073913;28;43966;-73
2023/09/13 12:32:16;;;;;;;2.75;2.65;;;24.30;70.60;;;;;;5052730;28;45645;-72
2023/09/13 12:34:45;;;;;;;2.93;2.83;;;24.30;70.50;;;;;;5069828;28;43326;-72
2023/09/13 12:37:13;;;;;;;3.05;2.95;;;24.20;70.80;;;;;;5070290;28;43460;-72
2023/09/13 12:39:42;;;;;;;2.95;2.85;;;24.10;70.70;;;;;;5069382;28;43955;-72
2023/09/13 12:42:11;;;;;;;3.30;3.10;;;24.10;70.70;;;;;;5068701;28;43460;-72
2023/09/13 12:44:39;;;;;;;3.17;2.88;;;24.10;70.80;;;;;;5069969;28;43921;-72
2023/09/13 12:47:08;;;;;;;2.50;2.45;;;24.10;71.20;;;;;;5070137;28;43443;-80
2023/09/13 12:49:38;;;;;;;2.80;2.80;;;24.00;71.30;;;;;;5069385;28;45030;-70
2023/09/13 12:52:07;;;;;;;2.33;2.33;;;24.00;71.30;;;;;;5050984;28;44954;-71
2023/09/13 12:54:35;;;;;;;2.70;2.60;;;24.00;71.30;;;;;;5050312;28;43439;-72
2023/09/13 12:57:05;;;;;;;3.08;2.90;;;24.00;72.10;;;;;;5069083;28;43502;-71